createdAt,value
2018-12-16T00:01:17.174Z,81.60
2018-12-16T00:03:44.875Z,81.70
2018-12-16T00:06:12.492Z,81.70
2018-12-16T00:08:40.753Z,81.70
2018-12-16T00:11:08.926Z,81.70
2018-12-16T00:13:36.518Z,81.70
2018-12-16T00:16:04.162Z,81.70
2018-12-16T00:18:31.928Z,81.70
2018-12-16T00:20:59.507Z,81.80
2018-12-16T00:23:28.087Z,81.90
2018-12-16T00:25:55.728Z,81.80
2018-12-16T00:28:23.377Z,81.70
2018-12-16T00:30:51.008Z,81.80
2018-12-16T00:33:18.784Z,81.80
2018-12-16T00:35:46.413Z,81.70
2018-12-16T00:38:14.014Z,82.40
2018-12-16T00:40:41.618Z,81.80
2018-12-16T00:43:09.979Z,81.90
2018-12-16T00:45:38.253Z,81.80
2018-12-16T00:48:06.005Z,81.90
2018-12-16T00:50:33.634Z,81.80
2018-12-16T00:53:01.375Z,81.90
2018-12-16T00:55:29.065Z,82.00
2018-12-16T00:57:56.660Z,82.00
2018-12-16T01:00:24.350Z,82.10
2018-12-16T01:02:52.162Z,82.20
2018-12-16T01:05:19.975Z,82.10
2018-12-16T01:07:47.829Z,82.20
2018-12-16T01:10:15.453Z,82.10
2018-12-16T01:12:43.124Z,82.10
2018-12-16T01:15:10.783Z,82.10
2018-12-16T01:17:38.587Z,82.10
2018-12-16T01:20:07.463Z,82.10
2018-12-16T01:22:35.953Z,82.10
2018-12-16T01:25:03.598Z,82.10
2018-12-16T01:27:31.265Z,82.20
2018-12-16T01:29:58.867Z,82.10
2018-12-16T01:32:26.485Z,82.20
2018-12-16T01:34:54.208Z,82.10
2018-12-16T01:37:21.908Z,82.10
2018-12-16T01:39:49.627Z,82.20
2018-12-16T01:42:17.332Z,82.30
2018-12-16T01:44:44.895Z,82.20
2018-12-16T01:47:12.546Z,82.20
2018-12-16T01:49:40.186Z,82.20
2018-12-16T01:52:07.813Z,82.20
2018-12-16T01:54:36.285Z,82.20
2018-12-16T01:57:04.672Z,82.20
2018-12-16T01:59:32.387Z,82.30
2018-12-16T02:02:00.020Z,82.30
2018-12-16T02:04:27.681Z,82.30
2018-12-16T02:06:55.377Z,82.40
2018-12-16T02:09:23.087Z,82.30
2018-12-16T02:11:50.758Z,82.20
2018-12-16T02:14:18.454Z,82.40
2018-12-16T02:16:46.038Z,82.30
2018-12-16T02:19:13.669Z,82.30
2018-12-16T02:21:41.305Z,82.30
2018-12-16T02:24:08.898Z,82.40
2018-12-16T02:26:36.466Z,82.50
2018-12-16T02:29:04.890Z,82.40
2018-12-16T02:31:33.269Z,82.40
2018-12-16T02:34:00.897Z,82.10
2018-12-16T02:36:29.618Z,82.20
2018-12-16T02:38:57.221Z,82.50
2018-12-16T02:41:24.995Z,82.40
2018-12-16T02:43:52.598Z,82.40
2018-12-16T02:46:20.202Z,82.40
2018-12-16T02:48:47.834Z,82.50
2018-12-16T02:51:15.659Z,82.60
2018-12-16T02:53:43.401Z,82.70
2018-12-16T02:56:11.538Z,82.60
2018-12-16T02:58:39.395Z,82.60
2018-12-16T03:01:07.060Z,82.60
2018-12-16T03:03:35.646Z,82.60
2018-12-16T03:06:04.948Z,82.60
2018-12-16T03:08:32.578Z,82.70
2018-12-16T03:11:00.216Z,82.70
2018-12-16T03:13:27.931Z,82.60
2018-12-16T03:15:55.529Z,82.60
2018-12-16T03:18:23.235Z,82.60
2018-12-16T03:20:50.898Z,82.70
2018-12-16T03:23:18.540Z,82.70
2018-12-16T03:25:46.268Z,82.70
2018-12-16T03:28:13.906Z,82.70
2018-12-16T03:30:41.644Z,82.60
2018-12-16T03:33:09.356Z,82.70
2018-12-16T03:35:37.229Z,82.80
2018-12-16T03:38:05.693Z,82.80
2018-12-16T03:40:33.355Z,82.70
2018-12-16T03:43:01.017Z,82.70
2018-12-16T03:45:28.616Z,82.80
2018-12-16T03:47:56.123Z,82.80
2018-12-16T03:50:23.605Z,82.70
2018-12-16T03:52:51.181Z,82.80
2018-12-16T03:55:18.699Z,82.80
2018-12-16T03:57:46.169Z,82.80
2018-12-16T04:00:13.765Z,82.80
2018-12-16T04:02:42.278Z,82.90
2018-12-16T04:05:09.785Z,82.80
2018-12-16T04:07:37.306Z,82.80
2018-12-16T04:10:05.386Z,82.80
2018-12-16T04:12:32.907Z,82.80
2018-12-16T04:15:00.391Z,82.80
2018-12-16T04:17:27.887Z,82.80
2018-12-16T04:19:56.263Z,82.80
2018-12-16T04:22:23.779Z,82.80
2018-12-16T04:24:51.285Z,82.90
2018-12-16T04:27:18.811Z,82.80
2018-12-16T04:29:46.328Z,83.70
2018-12-16T04:32:13.828Z,82.90
2018-12-16T04:34:41.358Z,82.90
2018-12-16T04:37:09.030Z,83.00
2018-12-16T04:39:36.515Z,83.00
2018-12-16T04:42:03.970Z,83.00
2018-12-16T04:44:31.472Z,83.10
2018-12-16T04:46:59.028Z,83.10
2018-12-16T04:49:26.645Z,83.00
2018-12-16T04:51:54.098Z,83.00
2018-12-16T04:54:21.617Z,83.00
2018-12-16T04:56:49.196Z,83.00
2018-12-16T04:59:16.695Z,83.00
2018-12-16T05:01:44.167Z,83.00
2018-12-16T05:04:11.663Z,83.10
2018-12-16T05:06:39.136Z,83.00
2018-12-16T05:09:07.249Z,83.00
2018-12-16T05:11:34.878Z,83.00
2018-12-16T05:14:02.392Z,83.00
2018-12-16T05:16:29.849Z,83.00
2018-12-16T05:18:57.375Z,83.10
2018-12-16T05:21:24.856Z,83.00
2018-12-16T05:23:52.361Z,83.10
2018-12-16T05:26:20.360Z,83.00
2018-12-16T05:28:47.846Z,83.10
2018-12-16T05:31:15.353Z,83.10
2018-12-16T05:33:42.895Z,83.20
2018-12-16T05:36:10.357Z,83.10
2018-12-16T05:38:37.845Z,83.20
2018-12-16T05:41:05.355Z,83.20
2018-12-16T05:43:32.832Z,83.10
2018-12-16T05:46:00.313Z,83.10
2018-12-16T05:48:27.839Z,83.20
2018-12-16T05:50:55.356Z,83.30
2018-12-16T05:53:22.820Z,83.20
2018-12-16T05:55:50.314Z,83.20
2018-12-16T05:58:17.900Z,83.20
2018-12-16T06:00:45.399Z,83.10
2018-12-16T06:03:12.930Z,83.20
2018-12-16T06:05:40.456Z,83.20
2018-12-16T06:08:07.957Z,83.10
2018-12-16T06:10:35.759Z,83.20
2018-12-16T06:13:03.265Z,83.10
2018-12-16T06:15:30.755Z,83.10
2018-12-16T06:17:58.235Z,83.40
2018-12-16T06:20:25.725Z,83.20
2018-12-16T06:22:53.245Z,83.30
2018-12-16T06:25:20.725Z,83.40
2018-12-16T06:27:48.210Z,83.20
2018-12-16T06:30:16.084Z,83.20
2018-12-16T06:32:43.577Z,83.40
2018-12-16T06:35:11.072Z,83.40
2018-12-16T06:37:38.618Z,83.30
2018-12-16T06:40:06.072Z,83.20
2018-12-16T06:42:33.565Z,83.20
2018-12-16T06:45:01.063Z,83.30
2018-12-16T06:47:28.525Z,83.30
2018-12-16T06:49:56.006Z,83.40
2018-12-16T06:52:23.481Z,83.30
2018-12-16T06:54:50.982Z,83.30
2018-12-16T06:57:18.491Z,83.40
2018-12-16T06:59:46.005Z,83.40
2018-12-16T07:02:13.497Z,83.40
2018-12-16T07:04:40.993Z,83.50
2018-12-16T07:07:08.466Z,83.40
2018-12-16T07:09:35.958Z,83.40
2018-12-16T07:12:03.425Z,83.40
2018-12-16T07:14:31.013Z,83.40
2018-12-16T07:16:58.515Z,83.20
2018-12-16T07:19:26.066Z,83.20
2018-12-16T07:21:53.533Z,83.10
2018-12-16T07:24:21.218Z,83.00
2018-12-16T07:26:48.722Z,83.00
2018-12-16T07:29:16.241Z,82.90
2018-12-16T07:31:43.714Z,83.00
2018-12-16T07:34:11.211Z,82.80
2018-12-16T07:36:38.874Z,82.90
2018-12-16T07:39:06.948Z,82.90
2018-12-16T07:41:34.425Z,82.90
2018-12-16T07:44:01.945Z,82.90
2018-12-16T07:46:29.487Z,82.90
2018-12-16T07:48:57.041Z,83.00
2018-12-16T07:51:24.508Z,82.90
2018-12-16T07:53:52.048Z,82.90
2018-12-16T07:56:19.580Z,82.80
2018-12-16T07:58:47.240Z,82.80
2018-12-16T08:01:14.770Z,82.80
2018-12-16T08:03:42.304Z,82.80
2018-12-16T08:06:09.837Z,82.70
2018-12-16T08:08:37.432Z,82.80
2018-12-16T08:11:04.972Z,82.80
2018-12-16T08:13:32.434Z,82.80
2018-12-16T08:16:04.422Z,82.70
2018-12-16T08:18:33.006Z,82.70
2018-12-16T08:21:00.497Z,82.70
2018-12-16T08:23:27.986Z,82.70
2018-12-16T08:25:57.531Z,82.70
2018-12-16T08:28:25.016Z,82.80
2018-12-16T08:30:52.522Z,82.80
2018-12-16T08:33:20.030Z,82.70
2018-12-16T08:35:47.549Z,82.70
2018-12-16T08:38:15.063Z,82.70
2018-12-16T08:40:44.691Z,82.70
2018-12-16T08:43:12.178Z,82.70
2018-12-16T08:45:39.682Z,82.70
2018-12-16T08:48:12.389Z,82.70
2018-12-16T08:50:39.872Z,82.80
2018-12-16T08:53:07.377Z,82.70
2018-12-16T08:55:34.886Z,82.70
2018-12-16T08:58:02.418Z,82.70
2018-12-16T09:00:30.032Z,82.80
2018-12-16T09:02:58.578Z,82.60
2018-12-16T09:05:26.185Z,82.40
2018-12-16T09:07:55.735Z,82.40
2018-12-16T09:10:23.345Z,82.30
2018-12-16T09:12:51.995Z,82.10
2018-12-16T09:15:19.565Z,82.00
2018-12-16T09:17:47.090Z,82.00
2018-12-16T09:20:15.598Z,81.80
2018-12-16T09:22:45.096Z,79.80
2018-12-16T09:25:13.730Z,78.90
2018-12-16T09:27:42.254Z,78.60
2018-12-16T09:30:10.571Z,78.90
2018-12-16T09:32:38.105Z,78.30
2018-12-16T09:35:06.705Z,78.10
2018-12-16T09:37:34.258Z,78.50
2018-12-16T09:40:01.790Z,77.00
2018-12-16T09:42:29.365Z,77.90
2018-12-16T09:44:57.006Z,78.60
2018-12-16T09:47:24.797Z,78.80
2018-12-16T09:49:52.364Z,77.30
2018-12-16T09:52:19.898Z,76.40
2018-12-16T09:54:47.537Z,79.00
2018-12-16T09:57:15.009Z,79.30
2018-12-16T09:59:44.552Z,79.10
2018-12-16T10:02:12.176Z,79.00
2018-12-16T10:04:39.815Z,78.80
2018-12-16T10:07:07.321Z,78.70
2018-12-16T10:09:34.881Z,78.80
2018-12-16T10:12:02.406Z,78.70
2018-12-16T10:14:29.950Z,78.70
2018-12-16T10:16:57.450Z,78.80
2018-12-16T10:19:24.961Z,79.50
2018-12-16T10:21:52.551Z,78.90
2018-12-16T10:24:20.086Z,78.90
2018-12-16T10:26:48.591Z,78.90
2018-12-16T10:29:16.101Z,79.00
2018-12-16T10:31:43.626Z,79.10
2018-12-16T10:34:11.209Z,79.00
2018-12-16T10:36:38.897Z,79.20
2018-12-16T10:39:07.362Z,79.10
2018-12-16T10:41:35.029Z,79.10
2018-12-16T10:44:02.566Z,79.10
2018-12-16T10:46:30.110Z,79.20
2018-12-16T10:49:04.581Z,79.20
2018-12-16T10:51:27.140Z,79.30
2018-12-16T10:53:55.666Z,79.20
2018-12-16T10:56:23.153Z,79.40
2018-12-16T10:58:50.620Z,79.20
2018-12-16T11:01:32.608Z,79.20
2018-12-16T11:04:00.080Z,79.20
2018-12-16T11:06:27.559Z,79.30
2018-12-16T11:08:55.027Z,79.20
2018-12-16T11:11:22.662Z,79.20
2018-12-16T11:13:50.452Z,79.20
2018-12-16T11:16:17.969Z,79.10
2018-12-16T11:18:45.464Z,79.20
2018-12-16T11:21:13.993Z,79.20
2018-12-16T11:23:41.497Z,79.20
2018-12-16T11:26:09.615Z,79.30
2018-12-16T11:28:37.097Z,79.20
2018-12-16T11:31:04.606Z,79.40
2018-12-16T11:33:32.148Z,79.40
2018-12-16T11:35:59.690Z,79.50
2018-12-16T11:38:27.266Z,79.50
2018-12-16T11:40:54.843Z,79.60
2018-12-16T11:43:22.314Z,79.70
2018-12-16T11:45:49.903Z,79.80
2018-12-16T11:48:18.023Z,79.90
2018-12-16T11:50:47.649Z,79.90
2018-12-16T11:53:15.189Z,80.10
2018-12-16T11:55:42.781Z,80.20
2018-12-16T11:58:16.126Z,80.10
2018-12-16T12:00:59.396Z,80.20
2018-12-16T12:03:28.959Z,80.10
2018-12-16T12:05:57.910Z,80.00
2018-12-16T12:08:30.804Z,80.10
2018-12-16T12:10:58.995Z,80.20
2018-12-16T12:13:26.779Z,80.20
2018-12-16T12:15:55.070Z,80.20
2018-12-16T12:18:23.809Z,80.20
2018-12-16T12:20:52.784Z,80.70
2018-12-16T12:23:21.407Z,80.20
2018-12-16T12:25:51.215Z,81.10
2018-12-16T12:28:19.442Z,80.10
2018-12-16T12:30:47.075Z,80.20
2018-12-16T12:33:16.002Z,80.00
2018-12-16T12:35:44.124Z,79.90
2018-12-16T12:38:13.365Z,80.20
2018-12-16T12:40:41.157Z,80.40
2018-12-16T12:43:11.352Z,80.20
2018-12-16T12:45:39.401Z,80.10
2018-12-16T12:48:08.062Z,80.30
2018-12-16T12:50:35.987Z,80.40
2018-12-16T12:53:04.097Z,80.20
2018-12-16T12:55:32.091Z,80.40
2018-12-16T12:57:59.775Z,80.30
2018-12-16T13:00:27.762Z,80.10
2018-12-16T13:02:56.507Z,80.20
2018-12-16T13:05:24.470Z,80.10
2018-12-16T13:07:52.367Z,80.10
2018-12-16T13:10:20.165Z,80.10
2018-12-16T13:12:48.051Z,80.10
2018-12-16T13:15:15.861Z,80.30
2018-12-16T13:17:43.775Z,80.20
2018-12-16T13:20:11.464Z,80.30
2018-12-16T13:22:39.189Z,80.20
2018-12-16T13:25:19.103Z,80.20
2018-12-16T13:27:55.407Z,80.40
2018-12-16T13:30:23.782Z,80.30
2018-12-16T13:32:51.557Z,80.60
2018-12-16T13:35:19.113Z,80.50
2018-12-16T13:37:54.981Z,80.40
2018-12-16T13:40:40.347Z,80.40
2018-12-16T13:43:07.982Z,80.30
2018-12-16T13:45:35.772Z,80.50
2018-12-16T13:48:03.404Z,80.30
2018-12-16T13:50:31.942Z,80.40
2018-12-16T13:53:00.695Z,80.50
2018-12-16T13:55:31.874Z,80.30
2018-12-16T13:58:01.066Z,80.50
2018-12-16T14:00:28.952Z,80.50
2018-12-16T14:02:59.570Z,80.50
2018-12-16T14:05:28.376Z,80.50
2018-12-16T14:07:56.933Z,80.50
2018-12-16T14:10:25.986Z,80.60
2018-12-16T14:12:55.222Z,80.40
2018-12-16T14:15:23.506Z,80.50
2018-12-16T14:17:53.005Z,80.60
2018-12-16T14:20:22.413Z,80.70
2018-12-16T14:22:50.556Z,80.50
2018-12-16T14:25:20.078Z,80.50
2018-12-16T14:27:50.516Z,80.50
2018-12-16T14:30:19.439Z,80.60
2018-12-16T14:32:47.441Z,80.60
2018-12-16T14:38:17.281Z,80.80
2018-12-16T14:40:45.763Z,80.80
2018-12-16T14:43:13.720Z,80.70
2018-12-16T14:51:19.933Z,80.70
2018-12-16T14:53:49.981Z,81.00
2018-12-16T14:56:18.717Z,81.00
2018-12-16T14:58:46.743Z,80.90
2018-12-16T15:01:16.762Z,80.80
2018-12-16T15:03:44.873Z,80.70
2018-12-16T15:06:13.974Z,80.80
2018-12-16T15:08:42.437Z,80.80
2018-12-16T15:11:11.914Z,80.80
2018-12-16T15:13:41.503Z,80.70
2018-12-16T15:16:25.242Z,80.80
2018-12-16T15:18:57.505Z,80.90
2018-12-16T15:21:26.494Z,80.70
2018-12-16T15:23:54.586Z,80.70
2018-12-16T15:26:32.156Z,80.80
2018-12-16T15:29:01.927Z,81.10
2018-12-16T15:31:29.638Z,80.80
2018-12-16T15:33:57.328Z,80.90
2018-12-16T15:36:25.110Z,80.80
2018-12-16T15:38:52.842Z,80.70
2018-12-16T15:41:21.457Z,80.80
2018-12-16T15:43:58.607Z,80.90
2018-12-16T15:46:32.134Z,81.00
2018-12-16T15:49:00.437Z,80.90
2018-12-16T15:51:39.292Z,80.80
2018-12-16T15:54:07.903Z,80.90
2018-12-16T15:56:38.001Z,80.80
2018-12-16T15:59:06.671Z,80.80
2018-12-16T16:01:41.054Z,80.90
2018-12-16T16:04:11.770Z,80.80
2018-12-16T16:07:18.450Z,80.80
2018-12-16T16:09:54.857Z,80.80
2018-12-16T16:12:23.845Z,80.70
2018-12-16T16:14:51.869Z,80.40
2018-12-16T16:17:22.806Z,80.50
2018-12-16T16:19:53.129Z,80.50
2018-12-16T16:22:24.825Z,80.40
2018-12-16T16:24:53.810Z,80.30
2018-12-16T16:27:28.165Z,80.20
2018-12-16T16:29:56.725Z,80.30
2018-12-16T16:32:24.924Z,80.20
2018-12-16T16:34:54.537Z,80.00
2018-12-16T16:37:22.797Z,80.00
2018-12-16T16:39:51.369Z,80.00
2018-12-16T16:42:22.390Z,80.00
2018-12-16T16:44:51.017Z,80.10
2018-12-16T16:47:24.362Z,80.00
2018-12-16T16:49:54.813Z,80.20
2018-12-16T16:52:24.731Z,80.00
2018-12-16T16:57:37.421Z,80.00
2018-12-16T17:00:06.257Z,79.80
2018-12-16T17:02:40.966Z,79.90
2018-12-16T17:05:08.925Z,80.00
2018-12-16T17:07:39.311Z,80.00
2018-12-16T17:10:09.024Z,79.90
2018-12-16T17:12:39.283Z,79.90
2018-12-16T17:15:07.977Z,79.90
2018-12-16T17:23:17.244Z,80.10
2018-12-16T17:25:48.296Z,80.10
2018-12-16T17:28:15.356Z,80.10
2018-12-16T17:30:43.680Z,80.00
2018-12-16T17:33:12.296Z,80.00
2018-12-16T17:35:40.307Z,80.00
2018-12-16T17:38:08.645Z,80.00
2018-12-16T17:40:36.497Z,79.80
2018-12-16T17:43:04.166Z,79.90
2018-12-16T17:45:31.666Z,79.70
2018-12-16T17:47:59.211Z,80.60
2018-12-16T17:50:26.741Z,79.90
2018-12-16T17:52:54.310Z,80.00
2018-12-16T17:55:21.858Z,80.80
2018-12-16T17:57:49.389Z,80.10
2018-12-16T18:00:16.885Z,80.00
2018-12-16T18:02:44.366Z,80.00
2018-12-16T18:05:11.828Z,80.40
2018-12-16T18:07:39.383Z,80.20
2018-12-16T18:10:07.063Z,80.00
2018-12-16T18:12:34.577Z,79.90
2018-12-16T18:15:02.145Z,79.90
2018-12-16T18:17:30.858Z,79.90
2018-12-16T18:19:58.404Z,80.10
2018-12-16T18:22:25.861Z,80.00
2018-12-16T18:24:53.370Z,80.00
2018-12-16T18:27:20.949Z,80.00
2018-12-16T18:29:48.518Z,80.20
2018-12-16T18:32:16.093Z,80.20
2018-12-16T18:34:43.653Z,80.00
2018-12-16T18:37:11.224Z,80.00
2018-12-16T18:39:38.778Z,80.10
2018-12-16T18:42:06.356Z,80.10
2018-12-16T18:44:33.917Z,80.20
2018-12-16T18:47:01.425Z,80.20
2018-12-16T18:49:28.951Z,80.20
2018-12-16T18:51:56.418Z,80.30
2018-12-16T18:54:24.090Z,80.20
2018-12-16T18:56:51.666Z,80.20
2018-12-16T18:59:19.222Z,80.00
2018-12-16T19:01:46.853Z,80.00
2018-12-16T19:04:14.497Z,80.10
2018-12-16T19:06:41.975Z,80.10
2018-12-16T19:09:09.503Z,80.00
2018-12-16T19:11:37.029Z,80.00
2018-12-16T19:14:04.618Z,80.20
2018-12-16T19:16:32.128Z,80.10
2018-12-16T19:18:59.836Z,80.10
2018-12-16T19:21:27.569Z,76.20
2018-12-16T19:23:55.230Z,73.70
2018-12-16T19:26:22.862Z,76.70
2018-12-16T19:28:50.422Z,78.90
2018-12-16T19:31:17.932Z,79.20
2018-12-16T19:33:45.478Z,79.10
2018-12-16T19:36:13.106Z,78.80
2018-12-16T19:38:40.749Z,78.90
2018-12-16T19:41:08.434Z,78.80
2018-12-16T19:43:36.061Z,78.90
2018-12-16T19:46:03.690Z,78.80
2018-12-16T19:48:31.221Z,78.80
2018-12-16T19:50:58.726Z,78.80
2018-12-16T19:53:26.355Z,78.90
2018-12-16T19:55:54.009Z,78.90
2018-12-16T19:58:21.781Z,79.10
2018-12-16T20:00:49.355Z,79.10
2018-12-16T20:03:17.401Z,79.10
2018-12-16T20:05:51.346Z,79.30
2018-12-16T20:10:59.658Z,79.60
2018-12-16T20:13:27.220Z,79.50
2018-12-16T20:16:01.523Z,79.70
2018-12-16T20:18:26.517Z,79.60
2018-12-16T20:20:55.088Z,79.70
2018-12-16T20:23:23.723Z,79.60
2018-12-16T20:25:51.347Z,79.70
2018-12-16T20:28:19.849Z,79.70
2018-12-16T20:30:48.398Z,79.90
2018-12-16T20:33:16.636Z,79.90
2018-12-16T20:35:45.235Z,80.00
2018-12-16T20:38:14.070Z,79.90
2018-12-16T20:40:41.773Z,80.00
2018-12-16T20:43:10.314Z,80.10
2018-12-16T20:45:37.814Z,80.00
2018-12-16T20:48:05.351Z,80.10
2018-12-16T20:50:34.925Z,80.10
2018-12-16T20:53:02.437Z,80.20
2018-12-16T20:55:31.687Z,80.30
2018-12-16T20:57:59.337Z,80.30
2018-12-16T21:00:26.867Z,80.30
2018-12-16T21:02:55.253Z,80.40
2018-12-16T21:05:23.871Z,80.20
2018-12-16T21:07:52.378Z,80.40
2018-12-16T21:10:19.856Z,80.50
2018-12-16T21:12:52.907Z,80.50
2018-12-16T21:15:26.565Z,80.50
2018-12-16T21:17:59.954Z,80.50
2018-12-16T21:20:27.622Z,80.50
2018-12-16T21:25:43.431Z,80.50
2018-12-16T21:28:11.064Z,80.50
2018-12-16T21:30:40.033Z,80.50
2018-12-16T21:33:08.673Z,80.50
2018-12-16T21:35:37.048Z,80.50
2018-12-16T21:38:04.537Z,80.40
2018-12-16T21:40:33.006Z,80.60
2018-12-16T21:43:01.751Z,80.60
2018-12-16T21:45:29.392Z,80.50
2018-12-16T21:47:56.970Z,80.70
2018-12-16T21:50:25.298Z,80.50
2018-12-16T21:52:52.870Z,80.70
2018-12-16T21:55:20.458Z,80.70
2018-12-16T21:57:48.011Z,80.70
2018-12-16T22:00:22.341Z,80.80
2018-12-16T22:02:50.943Z,80.80
2018-12-16T22:05:24.906Z,80.80
2018-12-16T22:07:52.569Z,80.90
2018-12-16T22:10:20.076Z,81.00
2018-12-16T22:12:47.674Z,81.00
2018-12-16T22:15:15.311Z,81.00
2018-12-16T22:17:43.263Z,81.20
2018-12-16T22:20:10.759Z,81.80
2018-12-16T22:22:39.365Z,81.20
2018-12-16T22:25:07.774Z,81.40
2018-12-16T22:27:40.150Z,81.30
2018-12-16T22:30:04.888Z,81.50
2018-12-16T22:32:32.397Z,81.50
2018-12-16T22:34:59.885Z,81.60
2018-12-16T22:37:27.616Z,81.60
2018-12-16T22:39:55.082Z,81.60
2018-12-16T22:42:22.555Z,81.60
2018-12-16T22:44:50.145Z,81.70
2018-12-16T22:47:17.681Z,82.00
2018-12-16T22:49:45.180Z,81.70
2018-12-16T22:52:12.694Z,81.80
2018-12-16T22:54:40.178Z,81.80
2018-12-16T22:57:07.745Z,82.00
2018-12-16T22:59:35.394Z,82.40
2018-12-16T23:02:04.066Z,81.60
2018-12-16T23:04:49.031Z,81.50
2018-12-16T23:07:16.558Z,81.40
2018-12-16T23:09:44.034Z,81.50
2018-12-16T23:12:11.521Z,81.50
2018-12-16T23:14:39.183Z,81.60
2018-12-16T23:17:06.685Z,81.60
2018-12-16T23:19:34.211Z,81.60
2018-12-16T23:22:01.714Z,81.50
2018-12-16T23:24:29.407Z,81.60
2018-12-16T23:26:57.043Z,81.70
2018-12-16T23:29:24.553Z,81.70
2018-12-16T23:31:52.073Z,81.70
2018-12-16T23:34:19.592Z,81.80
2018-12-16T23:36:47.116Z,81.70
2018-12-16T23:39:14.705Z,81.80
2018-12-16T23:44:28.728Z,81.80
2018-12-16T23:46:59.775Z,81.80
2018-12-16T23:49:41.390Z,82.00
